createdAt,value
2022-11-28T00:00:50.471Z,8.39
2022-11-28T00:01:50.595Z,6.19
2022-11-28T00:02:50.482Z,8.89
2022-11-28T00:03:50.254Z,8.10
2022-11-28T00:04:50.172Z,7.00
2022-11-28T00:05:50.097Z,6.00
2022-11-28T00:06:50.024Z,7.50
2022-11-28T00:07:50.056Z,6.59
2022-11-28T00:08:49.873Z,7.19
2022-11-28T00:09:49.802Z,7.90
2022-11-28T00:10:49.728Z,10.80
2022-11-28T00:11:49.658Z,9.69
2022-11-28T00:12:49.580Z,5.69
2022-11-28T00:13:49.509Z,8.69
2022-11-28T00:14:49.433Z,8.10
2022-11-28T00:15:49.385Z,7.50
2022-11-28T00:16:49.348Z,7.80
2022-11-28T00:17:49.326Z,7.80
2022-11-28T00:18:49.127Z,6.40
2022-11-28T00:19:49.049Z,5.90
2022-11-28T00:20:48.971Z,8.50
2022-11-28T00:21:48.895Z,6.40
2022-11-28T00:22:48.816Z,8.19
2022-11-28T00:23:48.749Z,7.00
2022-11-28T00:24:48.662Z,6.30
2022-11-28T00:25:48.586Z,7.19
2022-11-28T00:26:48.512Z,6.69
2022-11-28T00:27:48.434Z,6.59
2022-11-28T00:28:48.358Z,7.00
2022-11-28T00:29:48.268Z,10.30
2022-11-28T00:30:48.192Z,6.00
2022-11-28T00:31:48.152Z,6.19
2022-11-28T00:32:48.040Z,7.59
2022-11-28T00:33:48.082Z,7.00
2022-11-28T00:34:47.887Z,6.69
2022-11-28T00:35:47.808Z,6.69
2022-11-28T00:36:47.730Z,5.90
2022-11-28T00:37:47.650Z,9.69
2022-11-28T00:38:47.568Z,8.00
2022-11-28T00:39:47.486Z,7.40
2022-11-28T00:40:47.403Z,5.90
2022-11-28T00:41:47.315Z,6.30
2022-11-28T00:42:47.230Z,8.80
2022-11-28T00:43:47.146Z,6.59
2022-11-28T00:44:47.067Z,6.80
2022-11-28T00:45:47.034Z,8.39
2022-11-28T00:46:46.898Z,6.09
2022-11-28T00:47:46.820Z,5.90
2022-11-28T00:48:46.744Z,7.80
2022-11-28T00:49:46.784Z,9.39
2022-11-28T00:50:46.574Z,9.19
2022-11-28T00:51:46.488Z,7.30
2022-11-28T00:52:46.404Z,6.69
2022-11-28T00:53:46.315Z,10.50
2022-11-28T00:54:46.235Z,7.59
2022-11-28T00:55:46.151Z,7.19
2022-11-28T00:56:46.065Z,6.40
2022-11-28T00:57:45.985Z,9.39
2022-11-28T00:58:45.904Z,11.80
2022-11-28T00:59:45.824Z,7.50
2022-11-28T01:00:45.823Z,7.80
2022-11-28T01:01:45.814Z,7.90
2022-11-28T01:02:45.671Z,8.19
2022-11-28T01:03:45.526Z,9.39
2022-11-28T01:04:45.449Z,8.30
2022-11-28T01:05:51.270Z,10.80
2022-11-28T01:06:45.411Z,9.50
2022-11-28T01:07:45.293Z,7.50
2022-11-28T01:08:45.141Z,7.69
2022-11-28T01:09:45.066Z,10.50
2022-11-28T01:10:44.986Z,7.69
2022-11-28T01:11:44.908Z,8.19
2022-11-28T01:12:44.827Z,8.19
2022-11-28T01:13:44.750Z,7.59
2022-11-28T01:14:44.801Z,8.69
2022-11-28T01:15:44.597Z,8.00
2022-11-28T01:16:44.545Z,8.50
2022-11-28T01:17:44.450Z,8.89
2022-11-28T01:18:44.385Z,8.60
2022-11-28T01:19:44.317Z,10.30
2022-11-28T01:20:44.240Z,10.19
2022-11-28T01:21:44.168Z,8.30
2022-11-28T01:22:44.207Z,9.39
2022-11-28T01:23:44.013Z,8.89
2022-11-28T01:24:44.195Z,6.69
2022-11-28T01:25:43.863Z,7.40
2022-11-28T01:26:43.787Z,7.19
2022-11-28T01:27:43.711Z,6.50
2022-11-28T01:28:43.636Z,7.19
2022-11-28T01:29:43.557Z,8.00
2022-11-28T01:30:43.478Z,8.30
2022-11-28T01:31:43.448Z,12.00
2022-11-28T01:32:43.319Z,7.80
2022-11-28T01:33:43.247Z,8.60
2022-11-28T01:34:43.494Z,8.39
2022-11-28T01:35:43.090Z,8.39
2022-11-28T01:36:43.017Z,8.39
2022-11-28T01:37:42.946Z,9.30
2022-11-28T01:38:42.985Z,7.80
2022-11-28T01:39:42.795Z,8.30
2022-11-28T01:40:42.717Z,7.19
2022-11-28T01:41:42.644Z,8.89
2022-11-28T01:42:42.562Z,8.30
2022-11-28T01:43:42.481Z,6.69
2022-11-28T01:44:42.694Z,7.90
2022-11-28T01:45:42.319Z,10.19
2022-11-28T01:46:42.349Z,7.90
2022-11-28T01:47:42.154Z,8.30
2022-11-28T01:48:42.079Z,8.89
2022-11-28T01:49:41.997Z,8.60
2022-11-28T01:50:41.918Z,8.50
2022-11-28T01:51:41.842Z,8.80
2022-11-28T01:52:41.762Z,8.89
2022-11-28T01:53:41.681Z,8.19
2022-11-28T01:54:41.961Z,9.60
2022-11-28T01:55:41.532Z,11.50
2022-11-28T01:56:41.447Z,8.89
2022-11-28T01:57:41.371Z,8.39
2022-11-28T01:58:41.301Z,8.00
2022-11-28T01:59:41.221Z,8.39
2022-11-28T02:00:41.184Z,8.00
2022-11-28T02:01:41.116Z,7.59
2022-11-28T02:02:40.995Z,8.19
2022-11-28T02:03:40.917Z,10.60
2022-11-28T02:04:41.269Z,8.19
2022-11-28T02:05:40.752Z,10.60
2022-11-28T02:06:40.679Z,9.10
2022-11-28T02:07:40.642Z,10.39
2022-11-28T02:08:40.535Z,9.80
2022-11-28T02:09:40.457Z,11.69
2022-11-28T02:10:40.501Z,10.89
2022-11-28T02:11:40.307Z,11.60
2022-11-28T02:12:40.225Z,11.89
2022-11-28T02:13:40.142Z,12.89
2022-11-28T02:14:40.440Z,11.30
2022-11-28T02:15:39.984Z,9.30
2022-11-28T02:16:39.993Z,9.50
2022-11-28T02:17:39.828Z,11.30
2022-11-28T02:18:39.753Z,10.89
2022-11-28T02:19:39.680Z,11.89
2022-11-28T02:20:39.598Z,10.30
2022-11-28T02:21:39.521Z,11.10
2022-11-28T02:22:39.441Z,12.69
2022-11-28T02:23:39.363Z,9.50
2022-11-28T02:24:39.663Z,9.19
2022-11-28T02:25:39.208Z,9.30
2022-11-28T02:26:39.253Z,11.19
2022-11-28T02:27:39.047Z,11.10
2022-11-28T02:28:38.971Z,11.39
2022-11-28T02:29:38.888Z,13.80
2022-11-28T02:30:38.803Z,10.69
2022-11-28T02:31:38.805Z,16.89
2022-11-28T02:32:38.644Z,13.50
2022-11-28T02:33:38.567Z,12.69
2022-11-28T02:34:40.325Z,15.19
2022-11-28T02:35:38.411Z,11.80
2022-11-28T02:36:38.337Z,11.19
2022-11-28T02:37:38.260Z,10.89
2022-11-28T02:38:38.184Z,14.00
2022-11-28T02:39:38.109Z,11.39
2022-11-28T02:40:38.034Z,10.50
2022-11-28T02:41:37.955Z,11.39
2022-11-28T02:42:37.998Z,10.19
2022-11-28T02:43:37.803Z,11.69
2022-11-28T02:44:37.724Z,14.10
2022-11-28T02:45:37.647Z,15.10
2022-11-28T02:46:37.605Z,12.39
2022-11-28T02:47:37.504Z,13.00
2022-11-28T02:48:37.434Z,13.30
2022-11-28T02:49:37.365Z,11.50
2022-11-28T02:50:37.294Z,12.69
2022-11-28T02:51:37.219Z,12.80
2022-11-28T02:52:37.146Z,12.19
2022-11-28T02:53:37.069Z,15.69
2022-11-28T02:54:36.997Z,10.19
2022-11-28T02:55:36.930Z,13.30
2022-11-28T02:56:36.849Z,12.30
2022-11-28T02:57:36.776Z,11.00
2022-11-28T02:58:36.828Z,11.69
2022-11-28T02:59:36.636Z,11.60
2022-11-28T03:00:36.621Z,11.89
2022-11-28T03:01:36.644Z,11.30
2022-11-28T03:02:36.483Z,11.30
2022-11-28T03:03:36.358Z,11.69
2022-11-28T03:04:36.283Z,13.30
2022-11-28T03:05:36.219Z,11.30
2022-11-28T03:06:36.153Z,12.80
2022-11-28T03:07:36.124Z,12.89
2022-11-28T03:08:36.011Z,10.50
2022-11-28T03:09:35.936Z,11.19
2022-11-28T03:10:35.863Z,11.39
2022-11-28T03:11:35.796Z,11.00
2022-11-28T03:12:35.721Z,12.39
2022-11-28T03:13:35.648Z,14.50
2022-11-28T03:14:35.692Z,12.10
2022-11-28T03:15:35.497Z,14.19
2022-11-28T03:16:35.481Z,12.00
2022-11-28T03:17:35.355Z,12.00
2022-11-28T03:18:35.285Z,10.00
2022-11-28T03:19:35.215Z,9.19
2022-11-28T03:20:35.144Z,12.80
2022-11-28T03:21:35.068Z,11.00
2022-11-28T03:22:34.988Z,10.50
2022-11-28T03:23:34.915Z,10.80
2022-11-28T03:24:34.839Z,11.80
2022-11-28T03:25:34.760Z,10.80
2022-11-28T03:26:34.682Z,10.30
2022-11-28T03:27:34.605Z,11.39
2022-11-28T03:28:38.122Z,8.80
2022-11-28T03:29:35.469Z,10.19
2022-11-28T03:30:34.506Z,11.89
2022-11-28T03:31:34.445Z,9.69
2022-11-28T03:32:34.233Z,9.00
2022-11-28T03:33:34.161Z,10.30
2022-11-28T03:34:34.083Z,10.30
2022-11-28T03:35:34.003Z,9.60
2022-11-28T03:36:33.942Z,12.30
2022-11-28T03:37:33.850Z,11.19
2022-11-28T03:38:33.772Z,12.80
2022-11-28T03:39:33.699Z,12.30
2022-11-28T03:40:33.616Z,11.10
2022-11-28T03:41:33.536Z,13.89
2022-11-28T03:42:33.455Z,12.60
2022-11-28T03:43:33.378Z,11.10
2022-11-28T03:44:33.297Z,11.60
2022-11-28T03:45:33.215Z,12.60
2022-11-28T03:46:33.291Z,10.80
2022-11-28T03:47:33.051Z,13.00
2022-11-28T03:48:32.969Z,11.50
2022-11-28T03:49:32.895Z,14.80
2022-11-28T03:50:32.816Z,13.89
2022-11-28T03:51:32.738Z,12.30
2022-11-28T03:52:32.659Z,13.89
2022-11-28T03:53:32.581Z,15.80
2022-11-28T03:54:32.499Z,15.69
2022-11-28T03:55:32.474Z,15.00
2022-11-28T03:56:32.335Z,15.89
2022-11-28T03:57:32.255Z,18.50
2022-11-28T03:58:32.172Z,16.39
2022-11-28T03:59:32.087Z,21.29
2022-11-28T04:00:32.002Z,21.29
2022-11-28T04:01:31.960Z,19.29
2022-11-28T04:02:32.040Z,18.60
2022-11-28T04:03:31.804Z,20.20
2022-11-28T04:04:31.669Z,20.89
2022-11-28T04:05:31.591Z,21.39
2022-11-28T04:06:31.513Z,19.10
2022-11-28T04:07:31.459Z,23.50
2022-11-28T04:08:31.363Z,20.89
2022-11-28T04:09:31.278Z,21.70
2022-11-28T04:10:31.196Z,23.29
2022-11-28T04:11:31.116Z,23.39
2022-11-28T04:12:31.036Z,24.50
2022-11-28T04:13:30.966Z,24.50
2022-11-28T04:14:30.884Z,27.60
2022-11-28T04:15:30.803Z,26.10
2022-11-28T04:16:30.777Z,26.20
2022-11-28T04:17:30.633Z,27.29
2022-11-28T04:18:30.679Z,24.79
2022-11-28T04:19:30.473Z,30.00
2022-11-28T04:20:30.390Z,29.79
2022-11-28T04:21:30.309Z,24.89
2022-11-28T04:22:30.232Z,25.70
2022-11-28T04:23:30.154Z,27.79
2022-11-28T04:24:30.079Z,23.60
2022-11-28T04:25:30.000Z,24.79
2022-11-28T04:26:29.920Z,22.20
2022-11-28T04:27:29.843Z,22.89
2022-11-28T04:28:29.769Z,23.20
2022-11-28T04:29:29.696Z,25.79
2022-11-28T04:30:29.627Z,25.50
2022-11-28T04:31:29.669Z,23.79
2022-11-28T04:32:29.474Z,25.00
2022-11-28T04:33:29.392Z,24.10
2022-11-28T04:34:29.433Z,25.60
2022-11-28T04:35:29.236Z,28.39
2022-11-28T04:36:29.164Z,27.60
2022-11-28T04:37:29.093Z,26.10
2022-11-28T04:38:28.989Z,33.50
2022-11-28T04:39:28.905Z,35.50
2022-11-28T04:40:28.830Z,31.79
2022-11-28T04:41:28.748Z,34.70
2022-11-28T04:42:28.666Z,29.50
2022-11-28T04:43:28.592Z,34.70
2022-11-28T04:44:28.520Z,36.59
2022-11-28T04:45:28.537Z,36.40
2022-11-28T04:46:28.362Z,32.70
2022-11-28T04:47:28.287Z,31.39
2022-11-28T04:48:33.974Z,36.29
2022-11-28T04:49:29.159Z,33.90
2022-11-28T04:50:28.162Z,35.09
2022-11-28T04:51:27.964Z,37.09
2022-11-28T04:52:27.886Z,37.50
2022-11-28T04:53:27.805Z,37.29
2022-11-28T04:54:27.732Z,36.20
2022-11-28T04:55:27.655Z,37.90
2022-11-28T04:56:27.581Z,39.90
2022-11-28T04:57:27.509Z,39.20
2022-11-28T04:58:27.439Z,43.00
2022-11-28T04:59:27.356Z,45.20
2022-11-28T05:00:27.285Z,40.90
2022-11-28T05:01:27.275Z,43.09
2022-11-28T05:02:27.230Z,44.70
2022-11-28T05:03:27.056Z,45.59
2022-11-28T05:04:26.981Z,48.40
2022-11-28T05:05:26.901Z,48.20
2022-11-28T05:06:26.946Z,47.20
2022-11-28T05:07:26.839Z,47.09
2022-11-28T05:08:26.677Z,43.79
2022-11-28T05:09:26.605Z,44.70
2022-11-28T05:10:26.546Z,54.20
2022-11-28T05:11:26.460Z,64.80
2022-11-28T05:12:26.383Z,58.79
2022-11-28T05:13:26.308Z,54.29
2022-11-28T05:14:26.235Z,53.50
2022-11-28T05:15:26.167Z,51.70
2022-11-28T05:16:26.193Z,54.90
2022-11-28T05:17:26.022Z,47.90
2022-11-28T05:18:25.948Z,61.20
2022-11-28T05:19:25.875Z,57.70
2022-11-28T05:20:25.806Z,53.90
2022-11-28T05:21:25.732Z,53.59
2022-11-28T05:22:25.779Z,57.29
2022-11-28T05:23:25.595Z,56.79
2022-11-28T05:24:30.744Z,53.79
2022-11-28T05:25:26.469Z,56.20
2022-11-28T05:26:25.387Z,58.59
2022-11-28T05:27:25.318Z,67.00
2022-11-28T05:28:25.243Z,69.80
2022-11-28T05:29:25.175Z,66.19
2022-11-28T05:30:25.110Z,65.80
2022-11-28T05:31:25.068Z,69.90
2022-11-28T05:32:24.961Z,75.50
2022-11-28T05:33:24.883Z,68.19
2022-11-28T05:34:24.800Z,71.00
2022-11-28T05:35:24.723Z,66.09
2022-11-28T05:36:24.644Z,64.59
2022-11-28T05:37:24.571Z,73.69
2022-11-28T05:38:24.615Z,72.00
2022-11-28T05:39:24.428Z,69.80
2022-11-28T05:40:24.355Z,63.00
2022-11-28T05:41:24.287Z,69.09
2022-11-28T05:42:24.212Z,67.19
2022-11-28T05:43:24.137Z,76.80
2022-11-28T05:44:26.847Z,74.00
2022-11-28T05:45:24.015Z,75.19
2022-11-28T05:46:23.923Z,71.50
2022-11-28T05:47:23.858Z,68.30
2022-11-28T05:48:23.787Z,60.00
2022-11-28T05:49:23.720Z,66.80
2022-11-28T05:50:23.647Z,60.40
2022-11-28T05:51:23.572Z,65.40
2022-11-28T05:52:23.500Z,76.30
2022-11-28T05:53:23.422Z,75.69
2022-11-28T05:54:23.463Z,65.80
2022-11-28T05:55:23.271Z,69.00
2022-11-28T05:56:23.197Z,72.30
2022-11-28T05:57:23.122Z,67.80
2022-11-28T05:58:23.052Z,71.30
2022-11-28T05:59:22.972Z,62.79
2022-11-28T06:00:22.892Z,71.59
2022-11-28T06:01:22.825Z,80.59
2022-11-28T06:02:22.811Z,64.90
2022-11-28T06:03:22.674Z,72.40
2022-11-28T06:04:22.665Z,69.09
2022-11-28T06:05:41.582Z,70.59
2022-11-28T06:06:23.459Z,77.30
2022-11-28T06:07:22.436Z,66.50
2022-11-28T06:08:22.298Z,56.29
2022-11-28T06:09:25.801Z,76.69
2022-11-28T06:10:22.270Z,80.59
2022-11-28T06:11:22.078Z,71.30
2022-11-28T06:12:22.003Z,61.09
2022-11-28T06:13:21.936Z,66.19
2022-11-28T06:14:21.864Z,70.80
2022-11-28T06:15:21.789Z,66.30
2022-11-28T06:16:21.803Z,68.30
2022-11-28T06:17:21.654Z,69.09
2022-11-28T06:18:21.585Z,67.40
2022-11-28T06:19:21.511Z,63.59
2022-11-28T06:20:21.458Z,66.80
2022-11-28T06:21:21.376Z,58.79
2022-11-28T06:22:21.306Z,64.19
2022-11-28T06:23:21.241Z,71.00
2022-11-28T06:24:21.160Z,76.80
2022-11-28T06:25:21.087Z,74.90
2022-11-28T06:26:21.127Z,82.19
2022-11-28T06:27:20.941Z,71.19
2022-11-28T06:28:20.864Z,73.40
2022-11-28T06:29:20.787Z,69.69
2022-11-28T06:30:20.711Z,71.40
2022-11-28T06:31:20.674Z,77.30
2022-11-28T06:32:22.190Z,70.00
2022-11-28T06:33:20.494Z,86.90
2022-11-28T06:34:20.416Z,77.00
2022-11-28T06:35:20.342Z,77.50
2022-11-28T06:36:20.264Z,71.90
2022-11-28T06:37:20.187Z,80.50
2022-11-28T06:38:20.116Z,83.30
2022-11-28T06:39:20.044Z,84.80
2022-11-28T06:40:19.968Z,98.40
2022-11-28T06:41:19.893Z,101.00
2022-11-28T06:42:19.937Z,103.40
2022-11-28T06:43:19.738Z,96.19
2022-11-28T06:44:19.659Z,105.69
2022-11-28T06:45:19.594Z,97.30
2022-11-28T06:46:19.576Z,108.50
2022-11-28T06:47:19.427Z,105.00
2022-11-28T06:48:19.354Z,113.40
2022-11-28T06:49:19.280Z,95.59
2022-11-28T06:50:19.208Z,96.00
2022-11-28T06:51:19.129Z,122.09
2022-11-28T06:52:19.053Z,112.90
2022-11-28T06:53:18.978Z,113.19
2022-11-28T06:54:18.899Z,118.40
2022-11-28T06:55:18.821Z,110.40
2022-11-28T06:56:18.749Z,127.00
2022-11-28T06:57:18.681Z,95.40
2022-11-28T06:58:18.635Z,134.89
2022-11-28T06:59:18.537Z,102.59
2022-11-28T07:00:18.459Z,105.50
2022-11-28T07:01:18.447Z,131.69
2022-11-28T07:02:18.320Z,139.39
2022-11-28T07:03:18.227Z,130.39
2022-11-28T07:04:18.154Z,105.90
2022-11-28T07:05:18.081Z,121.40
2022-11-28T07:06:18.011Z,111.30
2022-11-28T07:07:17.983Z,127.69
2022-11-28T07:08:17.990Z,121.50
2022-11-28T07:09:17.799Z,104.50
2022-11-28T07:10:17.714Z,91.00
2022-11-28T07:11:17.635Z,98.50
2022-11-28T07:12:17.550Z,121.00
2022-11-28T07:13:17.474Z,110.09
2022-11-28T07:14:17.520Z,127.00
2022-11-28T07:15:17.318Z,115.59
2022-11-28T07:16:17.284Z,116.80
2022-11-28T07:17:17.157Z,138.60
2022-11-28T07:18:17.080Z,135.39
2022-11-28T07:19:17.002Z,121.50
2022-11-28T07:20:16.929Z,125.59
2022-11-28T07:21:16.845Z,105.40
2022-11-28T07:22:16.767Z,110.59
2022-11-28T07:23:16.690Z,133.10
2022-11-28T07:24:16.609Z,106.00
2022-11-28T07:25:16.532Z,122.19
2022-11-28T07:26:16.450Z,134.00
2022-11-28T07:27:16.375Z,114.00
2022-11-28T07:28:19.503Z,85.30
2022-11-28T07:29:17.228Z,82.59
2022-11-28T07:30:16.277Z,85.40
2022-11-28T07:31:16.114Z,80.59
2022-11-28T07:32:15.987Z,78.50
2022-11-28T07:33:15.918Z,80.80
2022-11-28T07:34:15.832Z,85.50
2022-11-28T07:35:15.758Z,88.90
2022-11-28T07:36:15.675Z,107.19
2022-11-28T07:37:15.590Z,81.09
2022-11-28T07:38:15.507Z,68.40
2022-11-28T07:39:15.436Z,81.19
2022-11-28T07:40:15.344Z,83.30
2022-11-28T07:41:15.264Z,77.80
2022-11-28T07:42:15.187Z,75.30
2022-11-28T07:43:15.108Z,84.80
2022-11-28T07:44:15.028Z,77.50
2022-11-28T07:45:14.945Z,82.09
2022-11-28T07:46:14.945Z,76.59
2022-11-28T07:47:14.787Z,77.09
2022-11-28T07:48:14.707Z,79.90
2022-11-28T07:49:14.622Z,74.09
2022-11-28T07:50:14.549Z,65.69
2022-11-28T07:51:14.472Z,71.59
2022-11-28T07:52:14.399Z,75.30
2022-11-28T07:53:14.326Z,85.00
2022-11-28T07:54:14.246Z,71.30
2022-11-28T07:55:14.171Z,73.69
2022-11-28T07:56:14.090Z,91.80
2022-11-28T07:57:14.019Z,83.59
2022-11-28T07:58:13.928Z,87.50
2022-11-28T07:59:13.846Z,75.00
2022-11-28T08:00:13.767Z,79.40
2022-11-28T08:01:13.681Z,69.59
2022-11-28T08:02:13.685Z,64.80
2022-11-28T08:03:13.523Z,68.80
2022-11-28T08:04:13.466Z,67.40
2022-11-28T08:05:13.451Z,67.69
2022-11-28T08:06:13.278Z,70.80
2022-11-28T08:07:13.214Z,66.19
2022-11-28T08:08:13.116Z,69.90
2022-11-28T08:09:13.050Z,60.29
2022-11-28T08:10:12.947Z,61.79
2022-11-28T08:11:12.871Z,61.79
2022-11-28T08:12:12.793Z,66.59
2022-11-28T08:13:12.722Z,70.30
2022-11-28T08:14:12.644Z,64.19
2022-11-28T08:15:12.576Z,70.69
2022-11-28T08:16:12.571Z,57.50
2022-11-28T08:17:12.428Z,55.90
2022-11-28T08:18:12.411Z,55.50
2022-11-28T08:19:12.279Z,44.40
2022-11-28T08:20:12.201Z,41.00
2022-11-28T08:21:12.120Z,42.20
2022-11-28T08:22:12.046Z,40.90
2022-11-28T08:23:11.987Z,40.40
2022-11-28T08:24:11.899Z,40.00
2022-11-28T08:25:11.821Z,32.29
2022-11-28T08:26:11.743Z,33.20
2022-11-28T08:27:11.670Z,34.50
2022-11-28T08:28:11.592Z,37.29
2022-11-28T08:29:11.516Z,40.00
2022-11-28T08:30:11.440Z,34.09
2022-11-28T08:31:11.485Z,36.90
2022-11-28T08:32:11.296Z,37.59
2022-11-28T08:33:11.212Z,35.20
2022-11-28T08:34:11.156Z,32.40
2022-11-28T08:35:11.054Z,32.90
2022-11-28T08:36:10.973Z,29.00
2022-11-28T08:37:10.898Z,29.20
2022-11-28T08:38:10.823Z,33.20
2022-11-28T08:39:26.244Z,28.29
2022-11-28T08:40:11.678Z,26.70
2022-11-28T08:41:10.587Z,26.50
2022-11-28T08:42:10.507Z,23.89
2022-11-28T08:43:10.422Z,20.29
2022-11-28T08:44:10.343Z,29.20
2022-11-28T08:45:10.261Z,24.70
2022-11-28T08:46:10.198Z,24.29
2022-11-28T08:47:10.098Z,23.00
2022-11-28T08:48:10.015Z,22.20
2022-11-28T08:49:09.936Z,22.39
2022-11-28T08:50:09.878Z,20.79
2022-11-28T08:51:09.771Z,24.10
2022-11-28T08:52:09.690Z,22.50
2022-11-28T08:53:09.613Z,23.50
2022-11-28T08:54:09.530Z,24.00
2022-11-28T08:55:09.449Z,18.70
2022-11-28T08:56:09.369Z,22.00
2022-11-28T08:57:09.283Z,23.50
2022-11-28T08:58:09.194Z,19.20
2022-11-28T08:59:09.106Z,18.70
2022-11-28T09:00:09.036Z,22.00
2022-11-28T09:01:09.024Z,19.60
2022-11-28T09:02:08.850Z,18.60
2022-11-28T09:03:08.766Z,19.10
2022-11-28T09:04:08.836Z,17.79
2022-11-28T09:05:08.606Z,17.60
2022-11-28T09:06:08.542Z,16.29
2022-11-28T09:07:08.437Z,17.29
2022-11-28T09:08:11.581Z,18.79
2022-11-28T09:09:08.261Z,18.60
2022-11-28T09:10:08.171Z,17.39
2022-11-28T09:11:08.091Z,17.00
2022-11-28T09:12:08.004Z,19.10
2022-11-28T09:13:07.919Z,19.29
2022-11-28T09:14:07.833Z,18.39
2022-11-28T09:15:07.747Z,17.29
2022-11-28T09:16:07.661Z,15.80
2022-11-28T09:17:07.758Z,15.50
2022-11-28T09:18:07.479Z,17.10
2022-11-28T09:19:07.385Z,16.79
2022-11-28T09:20:07.299Z,14.69
2022-11-28T09:21:07.209Z,15.60
2022-11-28T09:22:07.147Z,18.60
2022-11-28T09:23:07.039Z,14.89
2022-11-28T09:24:06.955Z,14.10
2022-11-28T09:25:06.860Z,18.60
2022-11-28T09:26:06.776Z,18.39
2022-11-28T09:27:06.698Z,20.20
2022-11-28T09:28:06.621Z,15.50
2022-11-28T09:29:06.545Z,17.50
2022-11-28T09:30:06.452Z,16.50
2022-11-28T09:31:06.508Z,15.00
2022-11-28T09:32:06.275Z,14.69
2022-11-28T09:33:06.191Z,16.39
2022-11-28T09:34:06.106Z,17.89
2022-11-28T09:35:06.022Z,17.29
2022-11-28T09:36:05.932Z,17.20
2022-11-28T09:37:05.845Z,18.60
2022-11-28T09:38:05.783Z,16.39
2022-11-28T09:39:05.665Z,14.80
2022-11-28T09:40:13.292Z,16.20
2022-11-28T09:41:06.540Z,15.19
2022-11-28T09:42:05.397Z,16.79
2022-11-28T09:43:05.513Z,17.60
2022-11-28T09:44:05.217Z,17.39
2022-11-28T09:45:05.130Z,15.39
2022-11-28T09:46:05.078Z,19.00
2022-11-28T09:47:04.958Z,17.70
2022-11-28T09:48:04.864Z,16.79
2022-11-28T09:49:04.777Z,17.20
2022-11-28T09:50:04.681Z,29.29
2022-11-28T09:51:04.592Z,15.39
2022-11-28T09:52:04.530Z,16.70
2022-11-28T09:53:04.482Z,15.89
2022-11-28T09:54:04.344Z,14.50
2022-11-28T09:55:04.230Z,19.89
2022-11-28T09:56:04.138Z,18.10
2022-11-28T09:57:04.048Z,17.50
2022-11-28T09:58:03.959Z,17.60
2022-11-28T09:59:03.866Z,18.60
2022-11-28T10:00:03.771Z,18.20
2022-11-28T10:01:03.679Z,18.89
2022-11-28T10:02:03.590Z,19.89
2022-11-28T10:03:03.497Z,16.20
2022-11-28T10:04:03.532Z,19.39
2022-11-28T10:05:03.366Z,19.00
2022-11-28T10:06:03.218Z,14.60
2022-11-28T10:07:03.125Z,13.39
2022-11-28T10:08:03.096Z,18.70
2022-11-28T10:09:02.948Z,15.60
2022-11-28T10:10:02.881Z,15.60
2022-11-28T10:11:02.767Z,16.89
2022-11-28T10:12:02.663Z,17.39
2022-11-28T10:13:02.570Z,16.50
2022-11-28T10:14:09.682Z,16.10
2022-11-28T10:15:02.379Z,18.29
2022-11-28T10:16:02.290Z,16.10
2022-11-28T10:17:02.261Z,14.30
2022-11-28T10:18:02.108Z,15.80
2022-11-28T10:19:02.012Z,13.89
2022-11-28T10:20:02.113Z,14.39
2022-11-28T10:21:01.829Z,16.20
2022-11-28T10:22:01.729Z,16.60
2022-11-28T10:23:01.633Z,16.20
2022-11-28T10:24:01.547Z,16.29
2022-11-28T10:25:01.444Z,16.60
2022-11-28T10:26:01.371Z,15.69
2022-11-28T10:27:01.258Z,14.60
2022-11-28T10:28:01.172Z,14.89
2022-11-28T10:29:01.079Z,18.79
2022-11-28T10:30:00.990Z,21.39
2022-11-28T10:31:01.020Z,14.89
2022-11-28T10:32:00.805Z,18.29
2022-11-28T10:33:00.715Z,16.39
2022-11-28T10:34:00.624Z,15.39
2022-11-28T10:35:00.533Z,18.20
2022-11-28T10:36:00.447Z,15.39
2022-11-28T10:37:00.364Z,15.50
2022-11-28T10:38:00.267Z,17.79
2022-11-28T10:39:00.182Z,14.30
2022-11-28T10:40:00.114Z,17.39
2022-11-28T10:40:59.992Z,18.60
2022-11-28T10:41:59.923Z,19.60
2022-11-28T10:42:59.805Z,16.29
2022-11-28T10:43:59.714Z,18.00
2022-11-28T10:44:59.622Z,19.20
2022-11-28T10:45:59.588Z,18.70
2022-11-28T10:46:59.432Z,18.70
2022-11-28T10:48:07.511Z,17.79
2022-11-28T10:49:00.251Z,14.10
2022-11-28T10:49:59.140Z,13.80
2022-11-28T10:50:59.049Z,17.70
2022-11-28T10:51:58.951Z,16.29
2022-11-28T10:52:58.859Z,17.20
2022-11-28T10:53:58.763Z,18.00
2022-11-28T10:54:58.662Z,17.10
2022-11-28T10:55:58.561Z,16.50
2022-11-28T10:56:58.472Z,14.39
2022-11-28T10:57:58.398Z,17.50
2022-11-28T10:58:58.260Z,17.20
2022-11-28T10:59:58.163Z,16.10
2022-11-28T11:00:58.194Z,17.39
2022-11-28T11:01:58.017Z,14.80
2022-11-28T11:02:57.857Z,15.89
2022-11-28T11:03:57.758Z,17.20
2022-11-28T11:04:57.732Z,17.39
2022-11-28T11:05:57.563Z,15.89
2022-11-28T11:07:08.431Z,15.30
2022-11-28T11:07:57.458Z,15.50
2022-11-28T11:08:57.265Z,13.69
2022-11-28T11:09:57.162Z,13.10
2022-11-28T11:10:57.058Z,12.19
2022-11-28T11:11:56.960Z,16.89
2022-11-28T11:12:56.861Z,17.20
2022-11-28T11:13:56.795Z,15.30
2022-11-28T11:14:56.663Z,14.30
2022-11-28T11:15:56.607Z,13.50
2022-11-28T11:16:56.471Z,15.30
2022-11-28T11:17:56.372Z,11.60
2022-11-28T11:18:56.273Z,12.39
2022-11-28T11:19:56.172Z,13.19
2022-11-28T11:20:56.082Z,16.89
2022-11-28T11:21:55.974Z,18.29
2022-11-28T11:22:55.888Z,12.19
2022-11-28T11:23:55.777Z,12.30
2022-11-28T11:24:55.675Z,12.89
2022-11-28T11:25:55.584Z,13.89
2022-11-28T11:26:55.478Z,17.60
2022-11-28T11:27:55.376Z,18.29
2022-11-28T11:28:55.292Z,14.50
2022-11-28T11:29:55.216Z,16.00
2022-11-28T11:30:55.160Z,12.30
2022-11-28T11:31:55.011Z,17.20
2022-11-28T11:32:54.890Z,16.50
2022-11-28T11:33:54.817Z,14.10
2022-11-28T11:34:54.700Z,15.10
2022-11-28T11:35:54.599Z,15.69
2022-11-28T11:36:54.499Z,16.29
2022-11-28T11:37:54.402Z,13.60
2022-11-28T11:38:54.304Z,17.39
2022-11-28T11:39:54.211Z,17.20
2022-11-28T11:40:54.104Z,14.60
2022-11-28T11:41:54.003Z,15.80
2022-11-28T11:42:53.913Z,13.60
2022-11-28T11:43:53.815Z,16.00
2022-11-28T11:44:53.721Z,16.60
2022-11-28T11:45:53.711Z,16.10
2022-11-28T11:46:53.590Z,16.39
2022-11-28T11:47:53.439Z,14.19
2022-11-28T11:48:53.344Z,14.39
2022-11-28T11:49:53.248Z,14.00
2022-11-28T11:50:53.148Z,14.69
2022-11-28T11:51:53.051Z,19.60
2022-11-28T11:52:52.956Z,15.39
2022-11-28T11:53:52.859Z,14.80
2022-11-28T11:54:52.764Z,20.20
2022-11-28T11:55:52.670Z,16.10
2022-11-28T11:57:05.688Z,16.10
2022-11-28T11:57:53.507Z,16.29
2022-11-28T11:58:52.384Z,14.00
2022-11-28T11:59:52.293Z,14.39
2022-11-28T12:00:52.200Z,16.39
2022-11-28T12:01:52.139Z,17.00
2022-11-28T12:02:52.112Z,15.80
2022-11-28T12:03:52.000Z,13.19
2022-11-28T12:04:55.344Z,16.10
2022-11-28T12:06:13.109Z,14.39
2022-11-28T12:06:52.659Z,13.00
2022-11-28T12:07:51.673Z,16.29
2022-11-28T12:08:51.463Z,14.60
2022-11-28T12:09:53.556Z,15.60
2022-11-28T12:10:51.269Z,18.29
2022-11-28T12:11:51.180Z,15.60
2022-11-28T12:12:51.084Z,13.89
2022-11-28T12:13:51.009Z,16.29
2022-11-28T12:14:50.901Z,14.69
2022-11-28T12:15:50.891Z,15.39
2022-11-28T12:16:50.711Z,15.30
2022-11-28T12:17:54.463Z,15.00
2022-11-28T12:18:51.531Z,16.20
2022-11-28T12:19:50.421Z,18.39
2022-11-28T12:20:50.325Z,18.29
2022-11-28T12:21:50.235Z,15.30
2022-11-28T12:22:50.135Z,17.89
2022-11-28T12:23:50.048Z,14.60
2022-11-28T12:24:50.478Z,19.39
2022-11-28T12:25:49.863Z,13.30
2022-11-28T12:26:49.774Z,15.50
2022-11-28T12:27:49.684Z,17.60
2022-11-28T12:28:49.595Z,14.89
2022-11-28T12:29:49.518Z,16.79
2022-11-28T12:30:49.569Z,17.10
2022-11-28T12:31:49.326Z,16.60
2022-11-28T12:32:49.232Z,18.00
2022-11-28T12:33:49.165Z,15.69
2022-11-28T12:34:49.044Z,17.60
2022-11-28T12:35:48.955Z,20.00
2022-11-28T12:36:48.869Z,18.60
2022-11-28T12:38:10.325Z,18.10
2022-11-28T12:38:49.704Z,16.39
2022-11-28T12:39:48.617Z,20.60
2022-11-28T12:40:48.518Z,20.89
2022-11-28T12:41:48.421Z,24.00
2022-11-28T12:42:48.331Z,20.39
2022-11-28T12:43:48.240Z,17.50
2022-11-28T12:44:48.153Z,19.39
2022-11-28T12:45:48.072Z,18.50
2022-11-28T12:46:48.036Z,21.20
2022-11-28T12:47:47.906Z,19.79
2022-11-28T12:48:53.002Z,19.10
2022-11-28T12:49:47.726Z,20.79
2022-11-28T12:50:47.599Z,23.89
2022-11-28T12:51:47.511Z,22.20
2022-11-28T12:52:47.423Z,21.60
2022-11-28T12:53:47.332Z,19.10
2022-11-28T12:54:47.243Z,20.20